createdAt,value
2023-01-31T00:00:55.219Z,25.56
2023-01-31T00:03:24.931Z,25.58
2023-01-31T00:05:54.544Z,25.59
2023-01-31T00:08:24.088Z,25.61
2023-01-31T00:10:55.927Z,25.62
2023-01-31T00:13:24.986Z,25.64
2023-01-31T00:15:54.625Z,25.65
2023-01-31T00:18:24.065Z,25.66
2023-01-31T00:20:53.661Z,25.68
2023-01-31T00:23:23.061Z,25.70
2023-01-31T00:25:52.537Z,25.70
2023-01-31T00:28:21.733Z,25.72
2023-01-31T00:30:51.558Z,25.73
2023-01-31T00:33:21.157Z,25.74
2023-01-31T00:35:50.695Z,25.75
2023-01-31T00:38:19.976Z,25.77
2023-01-31T00:41:15.913Z,25.79
2023-01-31T00:43:45.277Z,25.81
2023-01-31T00:46:15.131Z,25.81
2023-01-31T00:48:44.693Z,25.82
2023-01-31T00:51:14.003Z,25.83
2023-01-31T00:53:43.515Z,25.84
2023-01-31T00:56:13.854Z,25.85
2023-01-31T00:58:43.049Z,25.86
2023-01-31T01:01:14.110Z,25.89
2023-01-31T01:03:43.846Z,25.90
2023-01-31T01:06:13.007Z,25.91
2023-01-31T01:08:42.495Z,25.92
2023-01-31T01:11:16.324Z,25.94
2023-01-31T01:13:45.523Z,25.95
2023-01-31T01:16:18.799Z,25.96
2023-01-31T01:18:49.152Z,25.97
2023-01-31T01:21:19.308Z,25.98
2023-01-31T01:23:51.181Z,26.00
2023-01-31T01:26:24.060Z,26.02
2023-01-31T01:28:53.334Z,26.05
2023-01-31T01:31:22.949Z,26.08
2023-01-31T01:33:54.545Z,26.09
2023-01-31T01:36:23.822Z,26.11
2023-01-31T01:38:53.225Z,26.12
2023-01-31T01:41:22.447Z,26.13
2023-01-31T01:43:53.018Z,26.14
2023-01-31T01:46:29.515Z,26.16
2023-01-31T01:49:00.309Z,25.96
2023-01-31T01:51:29.898Z,25.89
2023-01-31T01:53:59.442Z,25.85
2023-01-31T01:56:30.356Z,25.82
2023-01-31T01:59:03.656Z,25.80
2023-01-31T02:01:34.479Z,25.78
2023-01-31T02:04:04.870Z,25.74
2023-01-31T02:06:35.075Z,25.71
2023-01-31T02:09:05.220Z,25.69
2023-01-31T02:11:35.072Z,25.65
2023-01-31T02:14:08.481Z,25.63
2023-01-31T02:16:38.519Z,25.60
2023-01-31T02:19:09.663Z,25.57
2023-01-31T02:21:57.066Z,25.54
2023-01-31T02:24:28.273Z,25.50
2023-01-31T02:27:15.637Z,25.47
2023-01-31T02:29:55.029Z,25.44
2023-01-31T02:32:41.414Z,25.40
2023-01-31T02:35:27.777Z,25.36
2023-01-31T02:38:01.270Z,25.32
2023-01-31T02:40:35.914Z,25.28
2023-01-31T02:43:07.303Z,25.25
2023-01-31T02:45:38.304Z,25.21
2023-01-31T02:48:19.270Z,25.17
2023-01-31T02:50:49.939Z,25.14
2023-01-31T02:53:26.680Z,25.11
2023-01-31T02:56:21.369Z,25.10
2023-01-31T02:59:04.290Z,25.10
2023-01-31T03:01:44.111Z,25.11
2023-01-31T03:04:13.804Z,25.13
2023-01-31T03:06:44.424Z,25.15
2023-01-31T03:09:20.976Z,25.19
2023-01-31T03:11:51.753Z,25.24
2023-01-31T03:14:22.326Z,25.31
2023-01-31T03:17:10.446Z,25.35
2023-01-31T03:19:43.897Z,25.38
2023-01-31T03:22:15.276Z,25.40
2023-01-31T03:24:44.571Z,25.43
2023-01-31T03:27:16.745Z,25.50
2023-01-31T03:29:46.303Z,25.56
2023-01-31T03:32:22.862Z,25.61
2023-01-31T03:34:52.430Z,25.64
2023-01-31T03:37:25.854Z,25.68
2023-01-31T03:39:59.457Z,25.71
2023-01-31T03:42:32.967Z,25.77
2023-01-31T03:45:06.494Z,25.83
2023-01-31T03:47:37.491Z,25.86
2023-01-31T03:50:13.151Z,25.86
2023-01-31T03:52:46.468Z,25.91
2023-01-31T03:55:17.375Z,25.95
2023-01-31T03:57:47.353Z,25.96
2023-01-31T04:00:17.402Z,25.98
2023-01-31T04:02:47.039Z,26.00
2023-01-31T04:05:18.228Z,26.01
2023-01-31T04:07:47.704Z,25.99
2023-01-31T04:10:20.316Z,25.93
2023-01-31T04:12:49.591Z,25.86
2023-01-31T04:15:19.203Z,25.80
2023-01-31T04:17:49.109Z,25.76
2023-01-31T04:20:18.761Z,25.72
2023-01-31T04:22:50.471Z,25.67
2023-01-31T04:25:19.976Z,25.63
2023-01-31T04:27:49.313Z,25.60
2023-01-31T04:30:18.595Z,25.56
2023-01-31T04:32:47.839Z,25.53
2023-01-31T04:35:18.398Z,25.50
2023-01-31T04:37:47.850Z,25.46
2023-01-31T04:40:18.089Z,25.42
2023-01-31T04:42:47.675Z,25.38
2023-01-31T04:45:17.398Z,25.34
2023-01-31T04:47:46.585Z,25.30
2023-01-31T04:50:17.622Z,25.27
2023-01-31T04:52:48.296Z,25.23
2023-01-31T04:55:18.084Z,25.18
2023-01-31T04:57:47.727Z,25.14
2023-01-31T05:00:17.224Z,25.10
2023-01-31T05:02:46.592Z,25.05
2023-01-31T05:05:16.054Z,25.01
2023-01-31T05:07:46.080Z,24.96
2023-01-31T05:10:15.419Z,24.92
2023-01-31T05:12:44.722Z,24.88
2023-01-31T05:15:14.027Z,24.84
2023-01-31T05:17:43.319Z,24.79
2023-01-31T05:20:13.314Z,24.75
2023-01-31T05:22:42.647Z,24.70
2023-01-31T05:25:11.969Z,24.67
2023-01-31T05:27:41.349Z,24.63
2023-01-31T05:30:11.274Z,24.59
2023-01-31T05:32:40.928Z,24.55
2023-01-31T05:35:10.390Z,24.49
2023-01-31T05:37:39.605Z,24.46
2023-01-31T05:40:08.970Z,24.41
2023-01-31T05:42:38.330Z,24.37
2023-01-31T05:45:18.503Z,24.31
2023-01-31T05:47:49.307Z,24.26
2023-01-31T05:50:19.230Z,24.23
2023-01-31T05:52:54.584Z,24.18
2023-01-31T05:55:23.870Z,24.13
2023-01-31T05:57:53.741Z,24.08
2023-01-31T06:00:23.152Z,24.05
2023-01-31T06:02:52.566Z,24.01
2023-01-31T06:05:22.232Z,24.00
2023-01-31T06:07:51.570Z,24.00
2023-01-31T06:10:21.373Z,24.02
2023-01-31T06:12:50.684Z,24.03
2023-01-31T06:15:20.245Z,24.04
2023-01-31T06:17:49.651Z,24.05
2023-01-31T06:20:19.218Z,24.06
2023-01-31T06:22:48.505Z,24.07
2023-01-31T06:25:17.807Z,24.09
2023-01-31T06:27:47.138Z,24.09
2023-01-31T06:30:16.733Z,24.13
2023-01-31T06:32:46.138Z,24.13
2023-01-31T06:35:15.713Z,24.15
2023-01-31T06:37:45.025Z,24.15
2023-01-31T06:40:14.559Z,24.17
2023-01-31T06:42:44.420Z,24.19
2023-01-31T06:45:13.765Z,24.20
2023-01-31T06:47:43.015Z,24.21
2023-01-31T06:50:12.900Z,24.23
2023-01-31T06:52:42.581Z,24.25
2023-01-31T06:55:12.537Z,24.25
2023-01-31T06:57:49.076Z,24.27
2023-01-31T07:00:22.023Z,24.28
2023-01-31T07:02:51.282Z,24.30
2023-01-31T07:05:20.923Z,24.32
2023-01-31T07:07:50.813Z,24.34
2023-01-31T07:10:20.244Z,24.36
2023-01-31T07:12:49.510Z,24.37
2023-01-31T07:15:19.027Z,24.39
2023-01-31T07:17:48.868Z,24.41
2023-01-31T07:20:18.147Z,24.41
2023-01-31T07:22:47.473Z,24.44
2023-01-31T07:25:16.863Z,24.45
2023-01-31T07:27:46.200Z,24.48
2023-01-31T07:30:16.003Z,24.49
2023-01-31T07:32:45.406Z,24.50
2023-01-31T07:35:15.084Z,24.51
2023-01-31T07:37:44.512Z,24.54
2023-01-31T07:40:14.341Z,24.54
2023-01-31T07:42:44.175Z,24.56
2023-01-31T07:45:22.934Z,24.46
2023-01-31T07:47:44.658Z,24.59
2023-01-31T07:50:14.136Z,24.61
2023-01-31T07:52:43.624Z,24.62
2023-01-31T07:55:13.011Z,24.64
2023-01-31T07:57:42.322Z,24.65
2023-01-31T08:00:13.673Z,24.66
2023-01-31T08:03:00.403Z,24.68
2023-01-31T08:05:29.695Z,24.68
2023-01-31T08:08:00.438Z,24.70
2023-01-31T08:10:29.811Z,24.72
2023-01-31T08:12:59.131Z,24.73
2023-01-31T08:15:29.298Z,24.74
2023-01-31T08:17:58.759Z,24.75
2023-01-31T08:20:28.139Z,24.78
2023-01-31T08:22:59.714Z,24.79
2023-01-31T08:25:30.776Z,24.81
2023-01-31T08:28:00.130Z,24.83
2023-01-31T08:30:29.762Z,24.83
2023-01-31T08:32:58.935Z,24.85
2023-01-31T08:35:29.296Z,24.85
2023-01-31T08:38:10.423Z,24.86
2023-01-31T08:40:29.387Z,24.87
2023-01-31T08:42:58.707Z,24.89
2023-01-31T08:45:28.019Z,24.83
2023-01-31T08:48:00.866Z,24.75
2023-01-31T08:50:30.695Z,24.71
2023-01-31T08:53:03.973Z,24.67
2023-01-31T08:55:33.614Z,24.64
2023-01-31T08:58:05.349Z,24.61
2023-01-31T09:00:35.955Z,24.59
2023-01-31T09:03:06.010Z,24.55
2023-01-31T09:05:36.429Z,24.52
2023-01-31T09:08:06.148Z,24.49
2023-01-31T09:10:36.132Z,24.45
2023-01-31T09:13:06.028Z,24.42
2023-01-31T09:15:36.624Z,24.38
2023-01-31T09:18:07.133Z,24.34
2023-01-31T09:20:36.894Z,24.29
2023-01-31T09:23:07.072Z,24.25
2023-01-31T09:25:46.143Z,24.28
2023-01-31T09:28:10.084Z,24.30
2023-01-31T09:30:39.591Z,24.29
2023-01-31T09:33:08.845Z,24.31
2023-01-31T09:35:38.229Z,24.33
2023-01-31T09:38:07.943Z,24.34
2023-01-31T09:40:37.984Z,24.36
2023-01-31T09:43:07.874Z,24.37
2023-01-31T09:45:38.407Z,24.33
2023-01-31T09:48:08.004Z,24.39
2023-01-31T09:50:42.067Z,24.34
2023-01-31T09:53:20.040Z,24.29
2023-01-31T09:56:06.116Z,24.27
2023-01-31T09:58:50.107Z,24.24
2023-01-31T10:01:20.888Z,24.19
2023-01-31T10:04:09.805Z,24.17
2023-01-31T10:06:40.783Z,24.14
2023-01-31T10:09:11.789Z,24.09
2023-01-31T10:11:48.626Z,24.07
2023-01-31T10:14:25.247Z,24.03
2023-01-31T10:16:56.033Z,24.01
2023-01-31T10:19:26.813Z,23.97
2023-01-31T10:21:57.452Z,23.94
2023-01-31T10:24:40.359Z,23.91
2023-01-31T10:27:17.086Z,23.87
2023-01-31T10:29:52.978Z,23.83
2023-01-31T10:32:30.247Z,23.80
2023-01-31T10:35:00.621Z,23.75
2023-01-31T10:37:32.457Z,23.71
2023-01-31T10:40:03.357Z,23.68
2023-01-31T10:42:34.101Z,23.63
2023-01-31T10:45:04.265Z,23.61
2023-01-31T10:47:34.999Z,23.57
2023-01-31T10:50:06.200Z,23.55
2023-01-31T10:52:37.620Z,23.51
2023-01-31T10:55:08.901Z,23.47
2023-01-31T10:57:39.661Z,23.43
2023-01-31T11:00:09.507Z,23.40
2023-01-31T11:02:39.221Z,23.35
2023-01-31T11:05:09.441Z,23.31
2023-01-31T11:07:38.870Z,23.29
2023-01-31T11:10:09.709Z,23.26
2023-01-31T11:12:43.645Z,23.22
2023-01-31T11:15:18.013Z,23.20
2023-01-31T11:17:47.303Z,23.16
2023-01-31T11:20:17.895Z,23.13
2023-01-31T11:22:47.086Z,23.10
2023-01-31T11:25:20.635Z,23.06
2023-01-31T11:27:49.954Z,23.01
2023-01-31T11:30:20.867Z,22.97
2023-01-31T11:32:50.100Z,22.95
2023-01-31T11:35:20.734Z,22.90
2023-01-31T11:37:56.888Z,22.90
2023-01-31T11:40:31.314Z,22.91
2023-01-31T11:43:01.326Z,22.93
2023-01-31T11:45:33.870Z,22.95
2023-01-31T11:48:09.887Z,22.99
2023-01-31T11:50:40.045Z,23.06
2023-01-31T11:53:13.585Z,23.11
2023-01-31T11:55:42.699Z,23.17
2023-01-31T11:58:13.390Z,23.23
2023-01-31T12:00:42.647Z,23.30
2023-01-31T12:03:13.293Z,23.36
2023-01-31T12:05:46.013Z,23.43
2023-01-31T12:08:19.295Z,23.51
2023-01-31T12:10:48.398Z,23.57
2023-01-31T12:13:20.868Z,23.64
2023-01-31T12:15:56.091Z,23.71
2023-01-31T12:18:28.594Z,23.79
2023-01-31T12:20:58.805Z,23.85
2023-01-31T12:23:38.323Z,23.94
2023-01-31T12:26:09.774Z,24.00
2023-01-31T12:28:46.464Z,24.07
2023-01-31T12:31:18.658Z,24.16
2023-01-31T12:33:55.543Z,24.22
2023-01-31T12:36:26.258Z,24.29
2023-01-31T12:39:17.340Z,24.37
2023-01-31T12:41:53.623Z,24.44
2023-01-31T12:44:33.051Z,24.51
2023-01-31T12:47:12.583Z,24.56
2023-01-31T12:50:01.906Z,24.64
2023-01-31T12:52:45.793Z,24.67
2023-01-31T12:55:16.608Z,24.70
2023-01-31T12:58:05.868Z,24.74
2023-01-31T13:00:42.823Z,24.76
2023-01-31T13:03:13.392Z,24.80
2023-01-31T13:05:58.823Z,24.83
2023-01-31T13:08:29.261Z,24.84
2023-01-31T13:11:04.729Z,24.87
2023-01-31T13:13:41.307Z,24.89
2023-01-31T13:16:30.224Z,24.94
2023-01-31T13:19:00.984Z,24.98
2023-01-31T13:21:32.082Z,25.05
2023-01-31T13:24:05.421Z,25.08
2023-01-31T13:26:34.832Z,25.13
2023-01-31T13:29:08.743Z,25.17
2023-01-31T13:31:39.811Z,25.22
2023-01-31T13:34:10.677Z,25.27
2023-01-31T13:36:47.245Z,25.29
2023-01-31T13:39:17.771Z,25.33
2023-01-31T13:41:46.935Z,25.35
2023-01-31T13:44:16.209Z,25.36
2023-01-31T13:46:52.387Z,25.38
2023-01-31T13:49:21.888Z,25.43
2023-01-31T13:51:52.636Z,25.47
2023-01-31T13:54:23.385Z,25.50
2023-01-31T13:56:56.096Z,25.50
2023-01-31T13:59:26.607Z,25.52
2023-01-31T14:01:56.105Z,25.53
2023-01-31T14:04:26.631Z,25.57
2023-01-31T14:06:57.361Z,25.61
2023-01-31T14:09:42.892Z,25.64
2023-01-31T14:12:13.508Z,25.68
2023-01-31T14:14:42.991Z,25.70
2023-01-31T14:17:15.696Z,25.72
2023-01-31T14:19:51.368Z,25.74
2023-01-31T14:22:34.030Z,25.75
2023-01-31T14:25:02.658Z,25.78
2023-01-31T14:27:44.871Z,25.83
2023-01-31T14:30:27.843Z,25.84
2023-01-31T14:33:04.279Z,25.86
2023-01-31T14:35:34.877Z,25.88
2023-01-31T14:38:22.052Z,25.90
2023-01-31T14:40:52.697Z,25.89
2023-01-31T14:43:36.015Z,25.92
2023-01-31T14:46:15.703Z,25.96
2023-01-31T14:48:49.485Z,25.98
2023-01-31T14:51:26.430Z,26.00
2023-01-31T14:53:57.069Z,26.02
2023-01-31T14:56:45.757Z,26.04
2023-01-31T14:59:19.198Z,26.04
2023-01-31T15:01:48.459Z,26.06
2023-01-31T15:04:19.108Z,26.08
2023-01-31T15:06:49.683Z,26.11
2023-01-31T15:09:20.726Z,26.13
2023-01-31T15:11:50.515Z,26.14
2023-01-31T15:14:33.863Z,26.15
2023-01-31T15:17:04.903Z,26.17
2023-01-31T15:19:38.307Z,26.19
2023-01-31T15:22:09.397Z,26.22
2023-01-31T15:24:43.177Z,26.23
2023-01-31T15:27:22.930Z,26.26
2023-01-31T15:29:53.547Z,26.26
2023-01-31T15:32:24.131Z,26.27
2023-01-31T15:35:00.728Z,26.28
2023-01-31T15:37:31.235Z,26.29
2023-01-31T15:40:07.334Z,26.29
2023-01-31T15:42:36.828Z,26.31
2023-01-31T15:45:22.971Z,26.34
2023-01-31T15:48:02.228Z,26.35
2023-01-31T15:50:32.997Z,26.37
2023-01-31T15:53:06.554Z,26.38
2023-01-31T15:55:36.612Z,26.38
2023-01-31T15:58:09.293Z,26.41
2023-01-31T16:00:39.028Z,26.42
2023-01-31T16:03:09.152Z,26.42
2023-01-31T16:05:39.529Z,26.43
2023-01-31T16:08:27.816Z,26.45
2023-01-31T16:10:57.365Z,26.45
2023-01-31T16:13:26.721Z,26.49
2023-01-31T16:15:56.259Z,26.50
2023-01-31T16:18:25.536Z,26.52
2023-01-31T16:20:55.348Z,26.53
2023-01-31T16:23:34.276Z,26.53
2023-01-31T16:26:20.588Z,26.55
2023-01-31T16:28:51.372Z,26.56
2023-01-31T16:31:22.349Z,26.56
2023-01-31T16:33:54.919Z,26.57
2023-01-31T16:36:31.454Z,26.59
2023-01-31T16:39:01.411Z,26.58
2023-01-31T16:41:34.823Z,26.59
2023-01-31T16:44:04.012Z,26.60
2023-01-31T16:46:40.241Z,26.60
2023-01-31T16:49:11.155Z,26.62
2023-01-31T16:51:43.711Z,26.62
2023-01-31T16:54:25.413Z,26.63
2023-01-31T16:57:06.627Z,26.63
2023-01-31T16:59:38.527Z,26.65
2023-01-31T17:02:12.223Z,26.66
2023-01-31T17:04:41.808Z,26.66
2023-01-31T17:07:12.466Z,26.67
2023-01-31T17:09:41.799Z,26.67
2023-01-31T17:12:15.200Z,26.69
2023-01-31T17:14:44.538Z,26.69
2023-01-31T17:17:20.637Z,26.71
2023-01-31T17:19:44.530Z,26.67
2023-01-31T17:22:15.943Z,26.60
2023-01-31T17:24:45.955Z,26.55
2023-01-31T17:27:16.263Z,26.49
2023-01-31T17:29:48.350Z,26.43
2023-01-31T17:32:18.341Z,26.36
2023-01-31T17:34:49.530Z,26.31
2023-01-31T17:37:30.050Z,26.27
2023-01-31T17:39:49.536Z,26.23
2023-01-31T17:42:19.943Z,26.19
2023-01-31T17:44:49.505Z,26.15
2023-01-31T17:47:19.313Z,26.12
2023-01-31T17:49:48.633Z,26.09
2023-01-31T17:52:17.896Z,26.04
2023-01-31T17:54:47.171Z,26.01
2023-01-31T17:57:18.796Z,25.97
2023-01-31T17:59:48.062Z,25.94
2023-01-31T18:02:17.404Z,25.88
2023-01-31T18:04:46.777Z,25.87
2023-01-31T18:07:17.452Z,25.88
2023-01-31T18:09:46.796Z,25.89
2023-01-31T18:12:16.724Z,25.91
2023-01-31T18:14:45.921Z,25.91
2023-01-31T18:17:15.163Z,25.92
2023-01-31T18:19:44.930Z,25.92
2023-01-31T18:22:15.004Z,25.93
2023-01-31T18:24:44.385Z,25.95
2023-01-31T18:27:13.885Z,25.97
2023-01-31T18:29:43.166Z,25.98
2023-01-31T18:32:12.693Z,25.99
2023-01-31T18:34:41.902Z,26.00
2023-01-31T18:37:13.203Z,26.01
2023-01-31T18:39:42.534Z,25.96
2023-01-31T18:42:11.797Z,25.91
2023-01-31T18:44:41.272Z,25.87
2023-01-31T18:47:14.003Z,25.83
2023-01-31T18:49:45.803Z,25.78
2023-01-31T18:52:15.065Z,25.74
2023-01-31T18:54:44.404Z,25.71
2023-01-31T18:57:13.731Z,25.68
2023-01-31T18:59:42.929Z,25.64
2023-01-31T19:02:13.060Z,25.61
2023-01-31T19:04:42.290Z,25.58
2023-01-31T19:07:11.552Z,25.55
2023-01-31T19:09:41.575Z,25.52
2023-01-31T19:12:11.507Z,25.46
2023-01-31T19:14:41.871Z,25.43
2023-01-31T19:17:11.991Z,25.39
2023-01-31T19:19:41.561Z,25.37
2023-01-31T19:22:10.971Z,25.33
2023-01-31T19:24:43.687Z,25.31
2023-01-31T19:27:12.845Z,25.30
2023-01-31T19:29:42.663Z,25.32
2023-01-31T19:32:12.225Z,25.33
2023-01-31T19:34:41.935Z,25.34
2023-01-31T19:37:11.215Z,25.35
2023-01-31T19:39:40.735Z,25.36
2023-01-31T19:42:10.607Z,25.36
2023-01-31T19:44:40.648Z,25.38
2023-01-31T19:47:10.663Z,25.39
2023-01-31T19:49:39.862Z,25.41
2023-01-31T19:52:09.792Z,25.43
2023-01-31T19:54:41.641Z,25.45
2023-01-31T19:57:11.574Z,25.46
2023-01-31T19:59:42.068Z,25.47
2023-01-31T20:02:13.279Z,25.49
2023-01-31T20:04:42.432Z,25.52
2023-01-31T20:07:11.585Z,25.54
2023-01-31T20:09:43.499Z,25.55
2023-01-31T20:12:13.169Z,25.57
2023-01-31T20:14:42.357Z,25.59
2023-01-31T20:17:11.630Z,25.60
2023-01-31T20:19:41.851Z,25.61
2023-01-31T20:22:11.668Z,25.60
2023-01-31T20:24:41.789Z,25.53
2023-01-31T20:27:11.752Z,25.50
2023-01-31T20:29:41.677Z,25.47
2023-01-31T20:32:13.155Z,25.41
2023-01-31T20:34:42.407Z,25.36
2023-01-31T20:37:11.734Z,25.34
2023-01-31T20:39:41.015Z,25.31
2023-01-31T20:42:14.721Z,25.28
2023-01-31T20:44:44.007Z,25.24
2023-01-31T20:47:13.330Z,25.22
2023-01-31T20:49:42.736Z,25.20
2023-01-31T20:52:12.040Z,25.18
2023-01-31T20:54:41.740Z,25.16
2023-01-31T20:57:13.437Z,25.14
2023-01-31T20:59:42.605Z,25.14
2023-01-31T21:02:12.051Z,25.15
2023-01-31T21:04:41.654Z,25.15
2023-01-31T21:07:11.631Z,25.11
2023-01-31T21:09:41.819Z,25.06
2023-01-31T21:12:11.777Z,25.06
2023-01-31T21:14:40.992Z,25.06
2023-01-31T21:17:10.230Z,25.09
2023-01-31T21:19:39.995Z,25.11
2023-01-31T21:22:10.109Z,25.13
2023-01-31T21:24:40.206Z,25.13
2023-01-31T21:27:10.192Z,25.15
2023-01-31T21:29:40.243Z,25.17
2023-01-31T21:32:10.013Z,25.18
2023-01-31T21:34:40.950Z,25.20
2023-01-31T21:37:10.893Z,25.20
2023-01-31T21:39:40.932Z,25.23
2023-01-31T21:42:17.001Z,25.26
2023-01-31T21:44:46.241Z,25.27
2023-01-31T21:47:15.807Z,25.28
2023-01-31T21:49:45.156Z,25.31
2023-01-31T21:52:14.492Z,25.31
2023-01-31T21:54:43.686Z,25.34
2023-01-31T21:57:12.977Z,25.36
2023-01-31T21:59:43.616Z,25.37
2023-01-31T22:02:12.822Z,25.38
2023-01-31T22:04:42.116Z,25.40
2023-01-31T22:07:12.444Z,25.42
2023-01-31T22:09:42.435Z,25.43
2023-01-31T22:12:12.050Z,25.44
2023-01-31T22:14:42.260Z,25.38
2023-01-31T22:17:11.876Z,25.33
2023-01-31T22:19:41.239Z,25.30
2023-01-31T22:22:11.360Z,25.26
2023-01-31T22:24:41.275Z,25.23
2023-01-31T22:27:11.275Z,25.19
2023-01-31T22:29:42.389Z,25.15
2023-01-31T22:32:11.950Z,25.11
2023-01-31T22:34:41.400Z,25.11
2023-01-31T22:37:11.595Z,25.09
2023-01-31T22:39:41.144Z,25.05
2023-01-31T22:42:11.177Z,25.03
2023-01-31T22:44:41.048Z,25.01
2023-01-31T22:47:10.989Z,24.99
2023-01-31T22:49:42.237Z,24.95
2023-01-31T22:52:12.052Z,24.93
2023-01-31T22:54:41.252Z,24.90
2023-01-31T22:57:11.138Z,24.87
2023-01-31T22:59:41.158Z,24.83
2023-01-31T23:02:11.026Z,24.83
2023-01-31T23:04:42.019Z,24.84
2023-01-31T23:07:11.967Z,24.85
2023-01-31T23:09:41.991Z,24.86
2023-01-31T23:12:12.126Z,24.90
2023-01-31T23:14:42.934Z,24.92
2023-01-31T23:17:29.470Z,24.93
2023-01-31T23:19:58.812Z,24.95
2023-01-31T23:22:28.123Z,24.99
2023-01-31T23:24:57.554Z,25.02
2023-01-31T23:27:26.855Z,25.03
2023-01-31T23:29:56.118Z,25.05
2023-01-31T23:32:25.322Z,25.07
2023-01-31T23:34:54.539Z,25.10
2023-01-31T23:37:23.875Z,25.11
2023-01-31T23:39:53.095Z,25.14
2023-01-31T23:42:22.413Z,25.17
2023-01-31T23:44:51.724Z,25.22
2023-01-31T23:47:20.920Z,25.26
2023-01-31T23:49:50.215Z,25.29
2023-01-31T23:52:19.499Z,25.29
2023-01-31T23:54:48.823Z,25.31
2023-01-31T23:57:18.178Z,25.33
2023-01-31T23:59:48.047Z,25.35
